BAW971 EDDH-EGLL
Flight info
| Callsign | BAW971 |
|---|---|
| Flight time | 1h 10m |
| Altitude | 40000 |
| Route | WSN5G/33 WSN N125 ITMIZ DCT PARYD DCT ABNED L980 LOGAN |
| Aircraft | B77L/H-SDE1E2E3FGHIJ2J3J4J5M1RWXY/LB1D1 |
Departure
| Time | 2026-04-21 20:18 |
|---|---|
| Airport | Hamburg Helmut Schmidt Airport (EDDH) |
Arrival
| Time | 2026-04-21 21:29 |
|---|---|
| Airport | London Heathrow Airport (EGLL) |
| Time | Latitude | Longitude | Altitude | Speed | Heading |
|---|---|---|---|---|---|
| 2026-04-21 19:59 | 53.62932 | 10.00272 | 47 ft | 0 kts | 121° |
| 2026-04-21 20:13 | 53.62939 | 10.00254 | 55 ft | 4 kts | 123° |
| 2026-04-21 20:14 | 53.62955 | 10.00217 | 50 ft | 4 kts | 130° |
| 2026-04-21 20:14 | 53.62973 | 10.00184 | 47 ft | 4 kts | 141° |
| 2026-04-21 20:14 | 53.62995 | 10.00161 | 47 ft | 4 kts | 168° |
| 2026-04-21 20:14 | 53.63014 | 10.00162 | 47 ft | 0 kts | 212° |
| 2026-04-21 20:16 | 53.62994 | 10.00142 | 47 ft | 12 kts | 211° |
| 2026-04-21 20:17 | 53.62903 | 10.00051 | 48 ft | 12 kts | 203° |
| 2026-04-21 20:17 | 53.62842 | 9.99949 | 51 ft | 14 kts | 241° |
| 2026-04-21 20:17 | 53.62822 | 9.99783 | 50 ft | 14 kts | 307° |
| 2026-04-21 20:17 | 53.62864 | 9.99745 | 48 ft | 5 kts | 334° |
| 2026-04-21 20:18 | 53.62938 | 9.99679 | 50 ft | 38 kts | 333° |
| 2026-04-21 20:18 | 53.63791 | 9.98970 | 53 ft | 162 kts | 332° |
| 2026-04-21 20:18 | 53.64905 | 9.97996 | 665 ft | 193 kts | 334° |
| 2026-04-21 20:18 | 53.66149 | 9.96843 | 1389 ft | 215 kts | 335° |
| 2026-04-21 20:19 | 53.67483 | 9.95576 | 2241 ft | 230 kts | 335° |
| 2026-04-21 20:19 | 53.68993 | 9.94253 | 2792 ft | 253 kts | 336° |
| 2026-04-21 20:19 | 53.70528 | 9.92727 | 3659 ft | 261 kts | 321° |
| 2026-04-21 20:19 | 53.71484 | 9.90059 | 4498 ft | 277 kts | 283° |
| 2026-04-21 20:20 | 53.71368 | 9.86829 | 5525 ft | 282 kts | 248° |
| 2026-04-21 20:20 | 53.70512 | 9.83918 | 6364 ft | 284 kts | 245° |
| 2026-04-21 20:20 | 53.69761 | 9.80726 | 7235 ft | 291 kts | 251° |
| 2026-04-21 20:20 | 53.69112 | 9.77523 | 8192 ft | 294 kts | 252° |
| 2026-04-21 20:21 | 53.68456 | 9.74187 | 9144 ft | 299 kts | 252° |
| 2026-04-21 20:21 | 53.67798 | 9.70821 | 10068 ft | 304 kts | 252° |
| 2026-04-21 20:21 | 53.67129 | 9.67411 | 10854 ft | 313 kts | 252° |
| 2026-04-21 20:21 | 53.66411 | 9.63767 | 11178 ft | 341 kts | 252° |
| 2026-04-21 20:22 | 53.65629 | 9.59819 | 11442 ft | 369 kts | 251° |
| 2026-04-21 20:22 | 53.62986 | 9.52217 | 12837 ft | 387 kts | 230° |
| 2026-04-21 20:22 | 53.61335 | 9.48620 | 13897 ft | 391 kts | 231° |
| 2026-04-21 20:23 | 53.59694 | 9.44930 | 14848 ft | 397 kts | 232° |
| 2026-04-21 20:23 | 53.58051 | 9.41157 | 15736 ft | 402 kts | 232° |
| 2026-04-21 20:23 | 53.56395 | 9.37311 | 16618 ft | 408 kts | 233° |
| 2026-04-21 20:23 | 53.54716 | 9.33411 | 17475 ft | 413 kts | 232° |
| 2026-04-21 20:24 | 53.53016 | 9.29471 | 18401 ft | 419 kts | 232° |
| 2026-04-21 20:24 | 53.51315 | 9.25544 | 19170 ft | 424 kts | 232° |
| 2026-04-21 20:24 | 53.49541 | 9.21461 | 19886 ft | 431 kts | 232° |
| 2026-04-21 20:24 | 53.47785 | 9.17426 | 20591 ft | 437 kts | 232° |
| 2026-04-21 20:25 | 53.45981 | 9.13283 | 21316 ft | 442 kts | 232° |
| 2026-04-21 20:25 | 53.44130 | 9.09038 | 22035 ft | 448 kts | 232° |
| 2026-04-21 20:25 | 53.42276 | 9.04790 | 22748 ft | 454 kts | 231° |
| 2026-04-21 20:25 | 53.40400 | 9.00498 | 23467 ft | 460 kts | 231° |
| 2026-04-21 20:26 | 53.38500 | 8.96158 | 24155 ft | 465 kts | 231° |
| 2026-04-21 20:26 | 53.36576 | 8.91771 | 24768 ft | 469 kts | 231° |
| 2026-04-21 20:26 | 53.34678 | 8.87324 | 25385 ft | 474 kts | 236° |
| 2026-04-21 20:26 | 53.33265 | 8.82381 | 25949 ft | 481 kts | 250° |
| 2026-04-21 20:27 | 53.32265 | 8.77021 | 26569 ft | 484 kts | 252° |
| 2026-04-21 20:27 | 53.31192 | 8.71575 | 27167 ft | 488 kts | 250° |
| 2026-04-21 20:27 | 53.30036 | 8.66310 | 27764 ft | 491 kts | 248° |
| 2026-04-21 20:27 | 53.28809 | 8.60897 | 28335 ft | 496 kts | 249° |
| 2026-04-21 20:28 | 53.27620 | 8.55517 | 28904 ft | 500 kts | 249° |
| 2026-04-21 20:28 | 53.26420 | 8.50026 | 29454 ft | 505 kts | 249° |
| 2026-04-21 20:28 | 53.25263 | 8.44407 | 30005 ft | 509 kts | 251° |
| 2026-04-21 20:28 | 53.24205 | 8.38725 | 30514 ft | 513 kts | 252° |
| 2026-04-21 20:29 | 53.23174 | 8.33009 | 30961 ft | 515 kts | 253° |
| 2026-04-21 20:29 | 53.22148 | 8.27376 | 31434 ft | 516 kts | 252° |
| 2026-04-21 20:29 | 53.21081 | 8.21654 | 31984 ft | 515 kts | 252° |
| 2026-04-21 20:29 | 53.20001 | 8.15969 | 32699 ft | 510 kts | 252° |
| 2026-04-21 20:30 | 53.18923 | 8.10336 | 33479 ft | 504 kts | 252° |
| 2026-04-21 20:30 | 53.17868 | 8.04780 | 34155 ft | 500 kts | 252° |
| 2026-04-21 20:30 | 53.16826 | 7.99259 | 34659 ft | 498 kts | 253° |
| 2026-04-21 20:30 | 53.15785 | 7.93737 | 35063 ft | 498 kts | 253° |
| 2026-04-21 20:31 | 53.14758 | 7.88303 | 35449 ft | 498 kts | 253° |
| 2026-04-21 20:31 | 53.13713 | 7.82800 | 35863 ft | 497 kts | 253° |
| 2026-04-21 20:31 | 53.12656 | 7.77257 | 36287 ft | 496 kts | 253° |
| 2026-04-21 20:31 | 53.11617 | 7.71820 | 36703 ft | 495 kts | 253° |
| 2026-04-21 20:32 | 53.10580 | 7.66417 | 37092 ft | 494 kts | 253° |
| 2026-04-21 20:32 | 53.09470 | 7.60942 | 37450 ft | 493 kts | 251° |
| 2026-04-21 20:32 | 53.08288 | 7.55662 | 37810 ft | 493 kts | 250° |
| 2026-04-21 20:32 | 53.07060 | 7.50343 | 38171 ft | 493 kts | 250° |
| 2026-04-21 20:33 | 53.05834 | 7.44974 | 38515 ft | 492 kts | 250° |
| 2026-04-21 20:33 | 53.04634 | 7.39626 | 38872 ft | 492 kts | 251° |
| 2026-04-21 20:33 | 53.03451 | 7.34382 | 39148 ft | 491 kts | 250° |
| 2026-04-21 20:33 | 53.02157 | 7.29145 | 39394 ft | 491 kts | 248° |
| 2026-04-21 20:34 | 53.01236 | 7.25622 | 39604 ft | 490 kts | 248° |
| 2026-04-21 20:34 | 52.99396 | 7.18764 | 40029 ft | 486 kts | 247° |
| 2026-04-21 20:34 | 52.98027 | 7.13688 | 40259 ft | 487 kts | 247° |
| 2026-04-21 20:34 | 52.96646 | 7.08531 | 40259 ft | 492 kts | 248° |
| 2026-04-21 20:35 | 52.94334 | 6.99825 | 40339 ft | 490 kts | 248° |
| 2026-04-21 20:35 | 52.91167 | 6.87834 | 40355 ft | 487 kts | 248° |
| 2026-04-21 20:36 | 52.88899 | 6.79264 | 40359 ft | 485 kts | 248° |
| 2026-04-21 20:36 | 52.86185 | 6.69057 | 40358 ft | 483 kts | 248° |
| 2026-04-21 20:37 | 52.83470 | 6.58895 | 40360 ft | 483 kts | 247° |
| 2026-04-21 20:37 | 52.80767 | 6.48829 | 40356 ft | 482 kts | 248° |
| 2026-04-21 20:38 | 52.78020 | 6.38646 | 40347 ft | 482 kts | 247° |
| 2026-04-21 20:38 | 52.75280 | 6.28531 | 40349 ft | 483 kts | 247° |
| 2026-04-21 20:39 | 52.72525 | 6.18403 | 40346 ft | 483 kts | 247° |
| 2026-04-21 20:39 | 52.69762 | 6.08293 | 40343 ft | 484 kts | 247° |
| 2026-04-21 20:40 | 52.67013 | 5.98280 | 40328 ft | 484 kts | 247° |
| 2026-04-21 20:40 | 52.64200 | 5.88075 | 40338 ft | 484 kts | 247° |
| 2026-04-21 20:41 | 52.61406 | 5.77986 | 40337 ft | 486 kts | 247° |
| 2026-04-21 20:41 | 52.58581 | 5.67821 | 40341 ft | 493 kts | 247° |
| 2026-04-21 20:42 | 52.55703 | 5.57515 | 40356 ft | 499 kts | 247° |
| 2026-04-21 20:42 | 52.52777 | 5.47088 | 40348 ft | 505 kts | 247° |
| 2026-04-21 20:43 | 52.49818 | 5.36588 | 40353 ft | 509 kts | 247° |
| 2026-04-21 20:43 | 52.46985 | 5.26584 | 40352 ft | 513 kts | 246° |
| 2026-04-21 20:44 | 52.43959 | 5.15939 | 40343 ft | 516 kts | 246° |
| 2026-04-21 20:44 | 52.40907 | 5.05253 | 40339 ft | 518 kts | 246° |
| 2026-04-21 20:45 | 52.37841 | 4.94567 | 40335 ft | 519 kts | 246° |
| 2026-04-21 20:45 | 52.34766 | 4.83899 | 40340 ft | 518 kts | 246° |
| 2026-04-21 20:46 | 52.31690 | 4.73278 | 40342 ft | 516 kts | 246° |
| 2026-04-21 20:46 | 52.28619 | 4.62714 | 40314 ft | 514 kts | 246° |
| 2026-04-21 20:47 | 52.25558 | 4.52236 | 40319 ft | 513 kts | 246° |
| 2026-04-21 20:47 | 52.22482 | 4.41751 | 40318 ft | 512 kts | 246° |
| 2026-04-21 20:48 | 52.19395 | 4.31276 | 40334 ft | 511 kts | 246° |
| 2026-04-21 20:48 | 52.16319 | 4.20882 | 40322 ft | 510 kts | 246° |
| 2026-04-21 20:49 | 52.13223 | 4.10465 | 40342 ft | 509 kts | 246° |
| 2026-04-21 20:49 | 52.10124 | 4.00084 | 40335 ft | 509 kts | 246° |
| 2026-04-21 20:50 | 52.07032 | 3.89773 | 40320 ft | 509 kts | 246° |
| 2026-04-21 20:50 | 52.03921 | 3.79441 | 40329 ft | 509 kts | 246° |
| 2026-04-21 20:51 | 52.00799 | 3.69114 | 40319 ft | 506 kts | 246° |
| 2026-04-21 20:51 | 51.99368 | 3.64393 | 40315 ft | 492 kts | 246° |
| 2026-04-21 20:51 | 51.97948 | 3.59439 | 40216 ft | 482 kts | 246° |
| 2026-04-21 20:52 | 51.94964 | 3.49795 | 40311 ft | 479 kts | 245° |
| 2026-04-21 20:52 | 51.91946 | 3.40078 | 40298 ft | 480 kts | 246° |
| 2026-04-21 20:53 | 51.88979 | 3.30418 | 40303 ft | 479 kts | 246° |
| 2026-04-21 20:53 | 51.86158 | 3.20732 | 40338 ft | 475 kts | 252° |
| 2026-04-21 20:54 | 51.84439 | 3.10489 | 40373 ft | 469 kts | 263° |
| 2026-04-21 20:54 | 51.83720 | 3.00024 | 40315 ft | 468 kts | 267° |
| 2026-04-21 20:55 | 51.83099 | 2.89510 | 40212 ft | 465 kts | 267° |
| 2026-04-21 20:55 | 51.82773 | 2.84342 | 39866 ft | 466 kts | 266° |
| 2026-04-21 20:55 | 51.82428 | 2.79085 | 39356 ft | 466 kts | 267° |
| 2026-04-21 20:56 | 51.82087 | 2.73961 | 38944 ft | 462 kts | 267° |
| 2026-04-21 20:56 | 51.81738 | 2.68768 | 38418 ft | 458 kts | 266° |
| 2026-04-21 20:56 | 51.81394 | 2.63678 | 37948 ft | 453 kts | 266° |
| 2026-04-21 20:56 | 51.81052 | 2.58703 | 37513 ft | 448 kts | 266° |
| 2026-04-21 20:57 | 51.80701 | 2.53646 | 37083 ft | 443 kts | 266° |
| 2026-04-21 20:57 | 51.80362 | 2.48782 | 36892 ft | 432 kts | 267° |
| 2026-04-21 20:57 | 51.80033 | 2.44094 | 36794 ft | 417 kts | 266° |
| 2026-04-21 20:57 | 51.79710 | 2.39531 | 36513 ft | 397 kts | 266° |
| 2026-04-21 20:58 | 51.79404 | 2.35193 | 36064 ft | 385 kts | 267° |
| 2026-04-21 20:58 | 51.79104 | 2.30916 | 35429 ft | 378 kts | 267° |
| 2026-04-21 20:58 | 51.78809 | 2.26741 | 34698 ft | 376 kts | 268° |
| 2026-04-21 20:58 | 51.78507 | 2.22516 | 34208 ft | 375 kts | 268° |
| 2026-04-21 20:59 | 51.78237 | 2.18374 | 33943 ft | 367 kts | 269° |
| 2026-04-21 20:59 | 51.77998 | 2.14310 | 33631 ft | 361 kts | 270° |
| 2026-04-21 20:59 | 51.77770 | 2.10315 | 33237 ft | 358 kts | 270° |
| 2026-04-21 20:59 | 51.77541 | 2.06301 | 32784 ft | 357 kts | 270° |
| 2026-04-21 21:00 | 51.77307 | 2.02250 | 32350 ft | 355 kts | 270° |
| 2026-04-21 21:00 | 51.77077 | 1.98356 | 31954 ft | 352 kts | 270° |
| 2026-04-21 21:00 | 51.76844 | 1.94454 | 31582 ft | 349 kts | 270° |
| 2026-04-21 21:00 | 51.76609 | 1.90584 | 31380 ft | 340 kts | 271° |
| 2026-04-21 21:01 | 51.76379 | 1.86835 | 31166 ft | 333 kts | 271° |
| 2026-04-21 21:01 | 51.76154 | 1.83134 | 30778 ft | 331 kts | 271° |
| 2026-04-21 21:01 | 51.75930 | 1.79476 | 30163 ft | 323 kts | 272° |
| 2026-04-21 21:01 | 51.75710 | 1.75826 | 29392 ft | 330 kts | 271° |
| 2026-04-21 21:02 | 51.75484 | 1.72106 | 28851 ft | 332 kts | 271° |
| 2026-04-21 21:02 | 51.75254 | 1.68410 | 28452 ft | 330 kts | 270° |
| 2026-04-21 21:02 | 51.75024 | 1.64782 | 28332 ft | 322 kts | 270° |
| 2026-04-21 21:02 | 51.74796 | 1.61179 | 28329 ft | 323 kts | 270° |
| 2026-04-21 21:03 | 51.74333 | 1.53918 | 28106 ft | 326 kts | 270° |
| 2026-04-21 21:03 | 51.74100 | 1.50331 | 27654 ft | 321 kts | 270° |
| 2026-04-21 21:03 | 51.73865 | 1.46714 | 27040 ft | 327 kts | 269° |
| 2026-04-21 21:04 | 51.73627 | 1.43061 | 26610 ft | 325 kts | 269° |
| 2026-04-21 21:04 | 51.73388 | 1.39438 | 26284 ft | 322 kts | 269° |
| 2026-04-21 21:04 | 51.73151 | 1.35858 | 25960 ft | 320 kts | 269° |
| 2026-04-21 21:04 | 51.72916 | 1.32294 | 25624 ft | 320 kts | 268° |
| 2026-04-21 21:05 | 51.72679 | 1.28721 | 25292 ft | 323 kts | 268° |
| 2026-04-21 21:05 | 51.72437 | 1.25077 | 24907 ft | 327 kts | 268° |
| 2026-04-21 21:05 | 51.72192 | 1.21405 | 24599 ft | 331 kts | 267° |
| 2026-04-21 21:05 | 51.71942 | 1.17673 | 24247 ft | 339 kts | 267° |
| 2026-04-21 21:06 | 51.71680 | 1.13796 | 23893 ft | 350 kts | 266° |
| 2026-04-21 21:06 | 51.71410 | 1.09844 | 23457 ft | 357 kts | 268° |
| 2026-04-21 21:06 | 51.71136 | 1.05854 | 23032 ft | 358 kts | 267° |
| 2026-04-21 21:06 | 51.70866 | 1.01916 | 22633 ft | 357 kts | 267° |
| 2026-04-21 21:07 | 51.70590 | 0.97930 | 22245 ft | 355 kts | 266° |
| 2026-04-21 21:07 | 51.70316 | 0.94014 | 21860 ft | 351 kts | 267° |
| 2026-04-21 21:07 | 51.70045 | 0.90122 | 21489 ft | 348 kts | 266° |
| 2026-04-21 21:07 | 51.69777 | 0.86265 | 21114 ft | 345 kts | 266° |
| 2026-04-21 21:08 | 51.69509 | 0.82420 | 20737 ft | 343 kts | 266° |
| 2026-04-21 21:08 | 51.69244 | 0.78631 | 20369 ft | 340 kts | 266° |
| 2026-04-21 21:08 | 51.68978 | 0.74851 | 19994 ft | 338 kts | 266° |
| 2026-04-21 21:08 | 51.68713 | 0.71103 | 19632 ft | 337 kts | 265° |
| 2026-04-21 21:09 | 51.68444 | 0.67334 | 19269 ft | 338 kts | 265° |
| 2026-04-21 21:09 | 51.68171 | 0.63512 | 18893 ft | 341 kts | 265° |
| 2026-04-21 21:09 | 51.67897 | 0.59694 | 18509 ft | 344 kts | 264° |
| 2026-04-21 21:09 | 51.67622 | 0.55901 | 18078 ft | 345 kts | 264° |
| 2026-04-21 21:10 | 51.67340 | 0.52022 | 17670 ft | 345 kts | 264° |
| 2026-04-21 21:10 | 51.67063 | 0.48216 | 17273 ft | 342 kts | 264° |
| 2026-04-21 21:10 | 51.66788 | 0.44460 | 16884 ft | 338 kts | 264° |
| 2026-04-21 21:10 | 51.66511 | 0.40693 | 16513 ft | 334 kts | 264° |
| 2026-04-21 21:11 | 51.66238 | 0.37001 | 16145 ft | 330 kts | 264° |
| 2026-04-21 21:11 | 51.65970 | 0.33404 | 15773 ft | 320 kts | 264° |
| 2026-04-21 21:11 | 51.65795 | 0.31047 | 15525 ft | 315 kts | 264° |
| 2026-04-21 21:11 | 51.65536 | 0.27569 | 15211 ft | 310 kts | 264° |
| 2026-04-21 21:12 | 51.65279 | 0.24129 | 14924 ft | 307 kts | 263° |
| 2026-04-21 21:12 | 51.65022 | 0.20720 | 14553 ft | 309 kts | 263° |
| 2026-04-21 21:12 | 51.64762 | 0.17282 | 14207 ft | 306 kts | 263° |
| 2026-04-21 21:12 | 51.64435 | 0.13925 | 13820 ft | 303 kts | 256° |
| 2026-04-21 21:13 | 51.63825 | 0.10723 | 13468 ft | 298 kts | 250° |
| 2026-04-21 21:13 | 51.63120 | 0.07609 | 13122 ft | 294 kts | 249° |
| 2026-04-21 21:13 | 51.62405 | 0.04530 | 12812 ft | 292 kts | 249° |
| 2026-04-21 21:13 | 51.61700 | 0.01468 | 12495 ft | 293 kts | 249° |
| 2026-04-21 21:14 | 51.61000 | -0.01612 | 12216 ft | 289 kts | 249° |
| 2026-04-21 21:14 | 51.60326 | -0.04612 | 11900 ft | 284 kts | 249° |
| 2026-04-21 21:14 | 51.59663 | -0.07590 | 11580 ft | 278 kts | 249° |
| 2026-04-21 21:14 | 51.59021 | -0.10488 | 11282 ft | 274 kts | 249° |
| 2026-04-21 21:15 | 51.58383 | -0.13372 | 10993 ft | 273 kts | 249° |
| 2026-04-21 21:15 | 51.57749 | -0.16237 | 10694 ft | 273 kts | 249° |
| 2026-04-21 21:15 | 51.57123 | -0.19075 | 10505 ft | 262 kts | 249° |
| 2026-04-21 21:15 | 51.56520 | -0.21807 | 10364 ft | 257 kts | 249° |
| 2026-04-21 21:16 | 51.55916 | -0.24542 | 10074 ft | 263 kts | 249° |
| 2026-04-21 21:16 | 51.55292 | -0.27356 | 9780 ft | 272 kts | 249° |
| 2026-04-21 21:16 | 51.54653 | -0.30237 | 9462 ft | 275 kts | 249° |
| 2026-04-21 21:16 | 51.54012 | -0.33119 | 9141 ft | 272 kts | 248° |
| 2026-04-21 21:17 | 51.53380 | -0.35967 | 8825 ft | 269 kts | 248° |
| 2026-04-21 21:17 | 51.52755 | -0.38791 | 8547 ft | 267 kts | 248° |
| 2026-04-21 21:17 | 51.52134 | -0.41588 | 8255 ft | 265 kts | 248° |
| 2026-04-21 21:17 | 51.51520 | -0.44345 | 7973 ft | 263 kts | 248° |
| 2026-04-21 21:18 | 51.50905 | -0.47105 | 7676 ft | 259 kts | 248° |
| 2026-04-21 21:18 | 51.50314 | -0.49755 | 7369 ft | 245 kts | 248° |
| 2026-04-21 21:18 | 51.49747 | -0.52292 | 7166 ft | 239 kts | 248° |
| 2026-04-21 21:18 | 51.49184 | -0.54803 | 6893 ft | 241 kts | 248° |
| 2026-04-21 21:19 | 51.48610 | -0.57361 | 6416 ft | 247 kts | 248° |
| 2026-04-21 21:19 | 51.48032 | -0.59937 | 6040 ft | 241 kts | 248° |
| 2026-04-21 21:19 | 51.47472 | -0.62436 | 5731 ft | 229 kts | 248° |
| 2026-04-21 21:19 | 51.46952 | -0.64754 | 5470 ft | 218 kts | 247° |
| 2026-04-21 21:20 | 51.46445 | -0.67007 | 5219 ft | 207 kts | 247° |
| 2026-04-21 21:20 | 51.45966 | -0.69137 | 4991 ft | 200 kts | 247° |
| 2026-04-21 21:20 | 51.45495 | -0.71217 | 4772 ft | 200 kts | 247° |
| 2026-04-21 21:20 | 51.45023 | -0.73304 | 4583 ft | 204 kts | 247° |
| 2026-04-21 21:21 | 51.44537 | -0.75451 | 4353 ft | 204 kts | 247° |
| 2026-04-21 21:21 | 51.44055 | -0.77582 | 4112 ft | 199 kts | 247° |
| 2026-04-21 21:21 | 51.43625 | -0.79656 | 3884 ft | 199 kts | 259° |
| 2026-04-21 21:21 | 51.43871 | -0.81788 | 3784 ft | 195 kts | 308° |
| 2026-04-21 21:22 | 51.44903 | -0.83024 | 3721 ft | 181 kts | 352° |
| 2026-04-21 21:22 | 51.46108 | -0.83009 | 3676 ft | 171 kts | 25° |
| 2026-04-21 21:22 | 51.47003 | -0.81958 | 3577 ft | 157 kts | 65° |
| 2026-04-21 21:22 | 51.47218 | -0.80287 | 3520 ft | 152 kts | 85° |
| 2026-04-21 21:23 | 51.47372 | -0.78558 | 3321 ft | 156 kts | 84° |
| 2026-04-21 21:23 | 51.47477 | -0.76930 | 3132 ft | 141 kts | 86° |
| 2026-04-21 21:23 | 51.47525 | -0.75442 | 3007 ft | 125 kts | 88° |
| 2026-04-21 21:23 | 51.47550 | -0.74080 | 2916 ft | 120 kts | 89° |
| 2026-04-21 21:24 | 51.47567 | -0.72741 | 2862 ft | 124 kts | 89° |
| 2026-04-21 21:24 | 51.47579 | -0.71376 | 2700 ft | 119 kts | 89° |
| 2026-04-21 21:24 | 51.47590 | -0.70046 | 2609 ft | 117 kts | 89° |
| 2026-04-21 21:24 | 51.47599 | -0.68731 | 2489 ft | 119 kts | 88° |
| 2026-04-21 21:25 | 51.47609 | -0.67407 | 2332 ft | 117 kts | 88° |
| 2026-04-21 21:25 | 51.47617 | -0.66128 | 2181 ft | 115 kts | 89° |
| 2026-04-21 21:25 | 51.47625 | -0.64836 | 2045 ft | 115 kts | 89° |
| 2026-04-21 21:25 | 51.47633 | -0.63552 | 1906 ft | 118 kts | 88° |
| 2026-04-21 21:26 | 51.47643 | -0.62216 | 1733 ft | 120 kts | 88° |
| 2026-04-21 21:26 | 51.47651 | -0.60871 | 1570 ft | 118 kts | 87° |
| 2026-04-21 21:26 | 51.47660 | -0.59568 | 1416 ft | 119 kts | 87° |
| 2026-04-21 21:26 | 51.47680 | -0.58223 | 1325 ft | 119 kts | 84° |
| 2026-04-21 21:27 | 51.47717 | -0.56880 | 1160 ft | 123 kts | 84° |
| 2026-04-21 21:27 | 51.47711 | -0.55473 | 973 ft | 126 kts | 89° |
| 2026-04-21 21:27 | 51.47702 | -0.54084 | 849 ft | 128 kts | 83° |
| 2026-04-21 21:27 | 51.47738 | -0.52593 | 611 ft | 135 kts | 88° |
| 2026-04-21 21:28 | 51.47736 | -0.51149 | 436 ft | 129 kts | 87° |
| 2026-04-21 21:28 | 51.47746 | -0.49692 | 261 ft | 130 kts | 87° |
| 2026-04-21 21:28 | 51.47761 | -0.46928 | 98 ft | 102 kts | 90° |
| 2026-04-21 21:29 | 51.47759 | -0.46047 | 96 ft | 54 kts | 90° |
| 2026-04-21 21:29 | 51.47759 | -0.45548 | 95 ft | 38 kts | 89° |
| 2026-04-21 21:29 | 51.47761 | -0.45186 | 97 ft | 33 kts | 89° |
| 2026-04-21 21:29 | 51.47751 | -0.44953 | 101 ft | 15 kts | 106° |
| 2026-04-21 21:30 | 51.47714 | -0.44868 | 102 ft | 3 kts | 138° |
| 2026-04-21 21:30 | 51.47676 | -0.44821 | 103 ft | 7 kts | 145° |
| 2026-04-21 21:30 | 51.47652 | -0.44800 | 103 ft | 5 kts | 154° |
| 2026-04-21 21:30 | 51.47586 | -0.44778 | 99 ft | 10 kts | 199° |
| 2026-04-21 21:31 | 51.47576 | -0.44862 | 99 ft | 9 kts | 291° |
| 2026-04-21 21:31 | 51.47595 | -0.44990 | 100 ft | 13 kts | 272° |
| 2026-04-21 21:31 | 51.47597 | -0.45163 | 96 ft | 14 kts | 269° |
| 2026-04-21 21:31 | 51.47597 | -0.45317 | 96 ft | 16 kts | 270° |
| 2026-04-21 21:32 | 51.47597 | -0.45504 | 95 ft | 17 kts | 270° |
| 2026-04-21 21:32 | 51.47588 | -0.45683 | 95 ft | 14 kts | 253° |
| 2026-04-21 21:32 | 51.47534 | -0.45778 | 95 ft | 12 kts | 240° |
| 2026-04-21 21:32 | 51.47518 | -0.45921 | 95 ft | 14 kts | 268° |
| 2026-04-21 21:33 | 51.47517 | -0.46081 | 96 ft | 15 kts | 269° |
| 2026-04-21 21:33 | 51.47514 | -0.46277 | 95 ft | 20 kts | 269° |
| 2026-04-21 21:33 | 51.47516 | -0.46480 | 96 ft | 11 kts | 270° |
| 2026-04-21 21:33 | 51.47515 | -0.46618 | 96 ft | 14 kts | 270° |
| 2026-04-21 21:34 | 51.47488 | -0.46724 | 97 ft | 9 kts | 217° |
| 2026-04-21 21:34 | 51.47410 | -0.46736 | 96 ft | 13 kts | 172° |
| 2026-04-21 21:34 | 51.47307 | -0.46726 | 91 ft | 17 kts | 180° |
| 2026-04-21 21:34 | 51.47175 | -0.46725 | 89 ft | 18 kts | 180° |
| 2026-04-21 21:35 | 51.47076 | -0.46749 | 95 ft | 13 kts | 217° |
| 2026-04-21 21:35 | 51.47020 | -0.46856 | 93 ft | 13 kts | 198° |
| 2026-04-21 21:35 | 51.46920 | -0.46864 | 91 ft | 16 kts | 179° |
| 2026-04-21 21:35 | 51.46820 | -0.46862 | 96 ft | 12 kts | 179° |
| 2026-04-21 21:36 | 51.46754 | -0.46924 | 97 ft | 13 kts | 252° |
| 2026-04-21 21:36 | 51.46748 | -0.47081 | 96 ft | 15 kts | 269° |
| 2026-04-21 21:36 | 51.46748 | -0.47253 | 96 ft | 15 kts | 273° |
| 2026-04-21 21:36 | 51.46811 | -0.47347 | 94 ft | 13 kts | 351° |
| 2026-04-21 21:37 | 51.46874 | -0.47352 | 92 ft | 10 kts | 358° |
| 2026-04-21 21:37 | 51.46955 | -0.47353 | 95 ft | 13 kts | 360° |
| 2026-04-21 21:37 | 51.46981 | -0.47355 | 95 ft | 1 kts | 348° |